Time;durP1;ratioP1;P1;durP2;ratioP2;P2;SDS_P1;SDS_P2;PMS_P1;PMS_P2;Temp;Humidity;BMP_temperature;BMP_pressure;BME280_temperature;BME280_humidity;BME280_pressure;Samples;Min_cycle;Max_cycle;Signal;HPM_P1;HPM_P2
2022/01/10 00:01:33;;;;;;;8.25;4.65;;;;;;;;;;5219029;28;20048;-32
2022/01/10 00:04:06;;;;;;;8.77;5.13;;;;;;;;;;5221171;28;20067;-32
2022/01/10 00:06:39;;;;;;;7.53;4.70;;;;;;;;;;5221130;28;20049;-32
2022/01/10 00:09:12;;;;;;;9.45;4.88;;;;;;;;;;5218449;28;20052;-32
2022/01/10 00:11:45;;;;;;;10.05;5.38;;;;;;;;;;5218537;28;20068;-32
2022/01/10 00:14:17;;;;;;;10.57;5.30;;;;;;;;;;5192609;28;20055;-32
2022/01/10 00:16:50;;;;;;;10.75;4.72;;;;;;;;;;5210488;28;20302;-33
2022/01/10 00:19:24;;;;;;;10.83;5.37;;;;;;;;;;5214201;28;20538;-33
2022/01/10 00:21:56;;;;;;;8.65;5.65;;;;;;;;;;5212475;28;20325;-33
2022/01/10 00:24:29;;;;;;;9.87;5.40;;;;;;;;;;5214504;28;20340;-32
2022/01/10 00:27:02;;;;;;;9.52;5.50;;;;;;;;;;5212657;28;20204;-33
2022/01/10 00:29:35;;;;;;;9.07;5.53;;;;;;;;;;5211099;28;20052;-34
2022/01/10 00:32:08;;;;;;;7.82;4.88;;;;;;;;;;5203185;28;20342;-32
2022/01/10 00:34:40;;;;;;;10.18;6.28;;;;;;;;;;5198509;28;20208;-32
2022/01/10 00:37:14;;;;;;;10.40;5.45;;;;;;;;;;5186014;28;20048;-32
2022/01/10 00:39:48;;;;;;;8.77;5.27;;;;;;;;;;5200145;28;20574;-32
2022/01/10 00:42:21;;;;;;;9.48;4.78;;;;;;;;;;5185232;28;20052;-32
2022/01/10 00:44:55;;;;;;;8.15;4.50;;;;;;;;;;5212711;28;20048;-32
2022/01/10 00:47:28;;;;;;;7.18;4.93;;;;;;;;;;5215635;28;20052;-33
2022/01/10 00:50:00;;;;;;;12.93;4.68;;;;;;;;;;5211499;28;20075;-32
2022/01/10 00:52:34;;;;;;;;;;;2.60;99.90;;;;;;5195509;28;20055;-32
2022/01/10 00:55:07;;;;;;;7.15;4.53;;;;;;;;;;5215912;28;19929;-32
2022/01/10 00:57:40;;;;;;;7.20;4.53;;;;;;;;;;5202368;28;20036;-32
2022/01/10 01:00:14;;;;;;;7.87;4.50;;;2.50;99.90;;;;;;5187487;28;20040;-31
2022/01/10 01:02:47;;;;;;;12.90;5.97;;;;;;;;;;5189069;28;20504;-31
2022/01/10 01:05:22;;;;;;;8.07;4.45;;;;;;;;;;5207331;28;20272;-32
2022/01/10 01:07:55;;;;;;;7.55;4.50;;;;;;;;;;5212985;28;20041;-32
2022/01/10 01:11:00;;;;;;;10.10;5.03;;;;;;;;;;5213032;28;20051;-32
2022/01/10 01:13:36;;;;;;;7.93;5.25;;;;;;;;;;5214599;28;20056;-32
2022/01/10 01:16:13;;;;;;;8.20;4.82;;;;;;;;;;5212762;28;20480;-32
2022/01/10 01:24:14;;;;;;;9.32;4.25;;;;;;;;;;5184466;28;20036;-32
2022/01/10 01:26:48;;;;;;;6.77;4.20;;;2.50;99.90;;;;;;5213561;28;20076;-32
2022/01/10 01:29:26;;;;;;;6.60;4.80;;;2.50;99.90;;;;;;5211120;28;20456;-32
2022/01/10 01:31:59;;;;;;;6.50;4.53;;;;;;;;;;5215412;28;20055;-32
2022/01/10 01:34:35;;;;;;;11.10;4.68;;;;;;;;;;5181261;28;20170;-32
2022/01/10 01:37:09;;;;;;;9.18;4.00;;;;;;;;;;5213745;28;20049;-32
2022/01/10 01:39:42;;;;;;;8.13;4.43;;;;;;;;;;5190892;28;20037;-33
2022/01/10 01:42:34;;;;;;;7.67;4.40;;;;;;;;;;5218155;28;20048;-32
2022/01/10 01:45:10;;;;;;;9.80;4.43;;;2.40;99.90;;;;;;5211693;28;20064;-32
2022/01/10 01:47:43;;;;;;;10.70;5.03;;;;;;;;;;5189970;28;20623;-32
2022/01/10 01:50:26;;;;;;;7.90;4.33;;;;;;;;;;5192228;28;20673;-32
2022/01/10 01:52:59;;;;;;;7.10;4.18;;;;;;;;;;5210583;28;20330;-32
2022/01/10 01:55:32;;;;;;;8.30;4.57;;;;;;;;;;5213258;28;20761;-32
2022/01/10 01:58:05;;;;;;;5.82;4.43;;;;;;;;;;5200083;28;20044;-32
2022/01/10 02:00:39;;;;;;;7.55;4.97;;;;;;;;;;5192648;28;20049;-32
2022/01/10 02:03:12;;;;;;;5.63;3.63;;;;;;;;;;5193867;28;20048;-32
2022/01/10 02:05:45;;;;;;;6.80;4.32;;;;;;;;;;5211710;28;20055;-33
2022/01/10 02:08:18;;;;;;;10.95;4.45;;;;;;;;;;5203184;28;20040;-32
2022/01/10 02:10:51;;;;;;;7.45;4.15;;;;;;;;;;5194729;28;20495;-32
2022/01/10 02:13:23;;;;;;;8.73;4.25;;;;;;;;;;5199461;28;20393;-32
2022/01/10 02:18:35;;;;;;;5.85;4.25;;;2.40;99.90;;;;;;5194872;28;20503;-32
2022/01/10 02:21:09;;;;;;;7.68;4.90;;;;;;;;;;5195121;28;20045;-33
2022/01/10 02:23:42;;;;;;;6.35;4.35;;;2.50;99.90;;;;;;5201105;28;21841;-33
2022/01/10 02:26:22;;;;;;;6.47;4.10;;;;;;;;;;5209804;28;20072;-32
2022/01/10 02:28:55;;;;;;;7.53;4.25;;;;;;;;;;5190795;28;20055;-31
2022/01/10 02:31:28;;;;;;;7.40;4.18;;;;;;;;;;5181976;28;20063;-32
2022/01/10 02:34:01;;;;;;;8.13;4.72;;;;;;;;;;5208963;28;20057;-32
2022/01/10 02:36:34;;;;;;;8.73;5.17;;;;;;;;;;5193692;28;20049;-33
2022/01/10 02:39:10;;;;;;;10.32;4.30;;;2.40;99.90;;;;;;5210767;28;20743;-32
2022/01/10 02:41:43;;;;;;;7.82;4.10;;;2.40;99.90;;;;;;5202518;28;20685;-32
2022/01/10 02:44:17;;;;;;;6.53;4.07;;;2.40;99.90;;;;;;5208139;28;20048;-32
2022/01/10 02:46:50;;;;;;;10.57;4.57;;;;;;;;;;5179830;28;20055;-32
2022/01/10 02:49:33;;;;;;;9.93;4.70;;;;;;;;;;5199696;28;20068;-32
2022/01/10 02:52:06;;;;;;;6.43;4.03;;;;;;;;;;5210285;28;20522;-31
2022/01/10 02:54:42;;;;;;;6.25;4.18;;;;;;;;;;5213604;28;20301;-31
2022/01/10 02:57:21;;;;;;;11.27;4.60;;;;;;;;;;5186725;28;20040;-31
2022/01/10 02:59:54;;;;;;;11.52;4.70;;;;;;;;;;5193932;28;20655;-32
2022/01/10 03:02:32;;;;;;;6.10;4.43;;;;;;;;;;5196250;28;20037;-32
2022/01/10 03:05:06;;;;;;;7.47;4.65;;;2.30;99.90;;;;;;5203746;28;20059;-32
2022/01/10 03:07:39;;;;;;;11.40;4.30;;;;;;;;;;5214021;28;20054;-33
2022/01/10 03:10:12;;;;;;;9.40;4.90;;;;;;;;;;5211417;28;20041;-32
2022/01/10 03:12:45;;;;;;;6.95;4.57;;;;;;;;;;5196791;28;20790;-32
2022/01/10 03:15:19;;;;;;;10.65;5.70;;;;;;;;;;5175688;28;20049;-32
2022/01/10 03:17:53;;;;;;;7.85;4.45;;;;;;;;;;5190768;28;20041;-31
2022/01/10 03:20:26;;;;;;;9.13;4.27;;;;;;;;;;5164572;28;20044;-32
2022/01/10 03:22:59;;;;;;;9.68;4.57;;;;;;;;;;5207928;28;20969;-32
2022/01/10 03:25:32;;;;;;;8.68;5.00;;;;;;;;;;5211428;28;20064;-32
2022/01/10 03:28:13;;;;;;;9.55;4.40;;;;;;;;;;5210714;28;20789;-33
2022/01/10 03:30:47;;;;;;;8.98;4.47;;;;;;;;;;5207134;28;22379;-32
2022/01/10 03:33:23;;;;;;;8.80;3.97;;;;;;;;;;5170683;28;20063;-32
2022/01/10 03:35:56;;;;;;;9.70;4.47;;;;;;;;;;5183522;28;20601;-32
2022/01/10 03:38:29;;;;;;;10.60;4.55;;;;;;;;;;5192179;28;20507;-33
2022/01/10 03:41:02;;;;;;;5.60;4.03;;;;;;;;;;5186518;28;20364;-32
2022/01/10 03:43:34;;;;;;;5.38;3.80;;;;;;;;;;5179329;28;20064;-32
2022/01/10 03:46:08;;;;;;;5.07;3.72;;;;;;;;;;5188205;28;20074;-32
2022/01/10 03:48:41;;;;;;;11.13;5.10;;;;;;;;;;5192840;28;20052;-33
2022/01/10 03:51:14;;;;;;;9.43;5.15;;;;;;;;;;5191220;28;20528;-32
2022/01/10 03:53:47;;;;;;;9.63;5.13;;;;;;;;;;5174160;28;20048;-31
2022/01/10 03:56:21;;;;;;;10.30;5.25;;;2.40;99.90;;;;;;5201287;28;20040;-33
2022/01/10 03:58:55;;;;;;;8.18;4.90;;;;;;;;;;5200088;28;20045;-33
2022/01/10 04:01:28;;;;;;;7.75;4.45;;;;;;;;;;5215220;28;20040;-33
2022/01/10 04:04:02;;;;;;;8.52;4.32;;;;;;;;;;5196430;28;20343;-33
2022/01/10 04:06:35;;;;;;;8.05;5.80;;;;;;;;;;5191711;28;20553;-32
2022/01/10 04:09:09;;;;;;;11.93;5.20;;;;;;;;;;5222147;28;20061;-32
2022/01/10 04:11:42;;;;;;;9.25;5.47;;;;;;;;;;5219368;28;20676;-33
2022/01/10 04:14:15;;;;;;;10.25;5.80;;;;;;;;;;5204415;28;20443;-32
2022/01/10 04:16:48;;;;;;;9.10;6.10;;;;;;;;;;5192288;28;20053;-33
2022/01/10 04:19:20;;;;;;;11.57;5.83;;;;;;;;;;5200782;28;20052;-33
2022/01/10 04:21:53;;;;;;;8.45;5.25;;;;;;;;;;5196775;28;20563;-33
2022/01/10 04:24:27;;;;;;;10.18;5.13;;;;;;;;;;5201544;28;20037;-32
2022/01/10 04:27:00;;;;;;;11.82;4.82;;;;;;;;;;5204134;28;20044;-33
2022/01/10 04:29:33;;;;;;;12.45;5.40;;;;;;;;;;5198622;28;20060;-32
2022/01/10 04:32:07;;;;;;;11.50;5.65;;;;;;;;;;5216224;28;20053;-33
2022/01/10 04:34:40;;;;;;;7.53;4.97;;;;;;;;;;5196677;28;20329;-33
2022/01/10 04:37:13;;;;;;;9.00;5.47;;;;;;;;;;5208395;28;20055;-33
2022/01/10 04:39:46;;;;;;;14.48;6.10;;;;;;;;;;5189146;28;20108;-33
2022/01/10 04:42:19;;;;;;;12.43;5.83;;;;;;;;;;5211643;28;20396;-34
2022/01/10 04:44:52;;;;;;;10.43;5.67;;;;;;;;;;5184534;28;20659;-32
2022/01/10 04:47:27;;;;;;;10.07;6.03;;;;;;;;;;5181012;28;20055;-33
2022/01/10 04:52:39;;;;;;;10.38;5.70;;;;;;;;;;5179499;28;20196;-32
2022/01/10 04:55:12;;;;;;;9.57;5.85;;;2.40;99.90;;;;;;5175972;23;20056;-36
2022/01/10 04:57:45;;;;;;;;;;;2.40;99.90;;;;;;5166045;28;20063;-35
2022/01/10 05:00:18;;;;;;;10.02;5.65;;;;;;;;;;5150465;28;19929;-37
2022/01/10 05:02:51;;;;;;;11.93;6.07;;;;;;;;;;5167202;28;20045;-36
2022/01/10 05:05:25;;;;;;;10.20;6.18;;;;;;;;;;5167393;28;20516;-36
2022/01/10 05:07:58;;;;;;;13.47;5.63;;;;;;;;;;5170370;28;20044;-36
2022/01/10 05:10:31;;;;;;;7.10;4.80;;;;;;;;;;5174389;28;20329;-36
2022/01/10 05:13:04;;;;;;;;;;;2.40;99.90;;;;;;5159088;28;20412;-36
2022/01/10 05:15:37;;;;;;;10.73;6.18;;;;;;;;;;5170472;28;19931;-36
2022/01/10 05:18:10;;;;;;;10.85;6.70;;;;;;;;;;5192807;28;20193;-35
2022/01/10 05:20:43;;;;;;;14.40;8.13;;;;;;;;;;5190090;28;20060;-36
2022/01/10 05:23:16;;;;;;;14.47;7.40;;;;;;;;;;5176032;28;20049;-36
2022/01/10 05:25:49;;;;;;;;;;;2.50;99.90;;;;;;5174300;28;22231;-40
2022/01/10 05:28:22;;;;;;;13.38;6.70;;;;;;;;;;5194580;28;19925;-37
2022/01/10 05:31:00;;;;;;;11.57;6.80;;;;;;;;;;5170924;28;20040;-38
2022/01/10 05:33:37;;;;;;;11.07;6.75;;;;;;;;;;5192259;28;20059;-37
2022/01/10 05:36:10;;;;;;;12.93;6.33;;;;;;;;;;5173133;28;20396;-38
2022/01/10 05:38:45;;;;;;;11.20;6.40;;;;;;;;;;5206169;28;20484;-40
2022/01/10 05:41:21;;;;;;;14.10;7.27;;;;;;;;;;5179810;28;20059;-38
2022/01/10 05:43:55;;;;;;;13.00;7.28;;;;;;;;;;5172395;28;20091;-38
2022/01/10 05:46:29;;;;;;;13.77;7.10;;;;;;;;;;5168935;28;20049;-38
2022/01/10 05:49:03;;;;;;;10.70;6.63;;;2.60;99.90;;;;;;5186652;28;20049;-35
2022/01/10 05:51:38;;;;;;;10.75;6.32;;;;;;;;;;5175414;28;21788;-38
2022/01/10 05:54:29;;;;;;;11.00;7.15;;;;;;;;;;5189250;28;20814;-37
2022/01/10 05:57:03;;;;;;;12.75;6.10;;;;;;;;;;5188632;28;20401;-38
2022/01/10 05:59:39;;;;;;;12.35;6.40;;;;;;;;;;5159067;28;20052;-37
2022/01/10 06:02:12;;;;;;;14.80;7.22;;;;;;;;;;5176728;28;20045;-38
2022/01/10 06:04:45;;;;;;;10.90;7.10;;;;;;;;;;5166754;28;20059;-38
2022/01/10 06:07:28;;;;;;;12.75;7.35;;;;;;;;;;5167695;28;20123;-38
2022/01/10 06:10:00;;;;;;;13.63;6.68;;;;;;;;;;5190714;28;20038;-38
2022/01/10 06:12:34;;;;;;;12.50;6.55;;;;;;;;;;5184552;28;20504;-38
2022/01/10 06:15:07;;;;;;;11.50;6.75;;;;;;;;;;5159062;28;20052;-38
2022/01/10 06:17:45;;;;;;;13.38;6.45;;;;;;;;;;5142968;28;20041;-38
2022/01/10 06:20:18;;;;;;;12.23;5.80;;;;;;;;;;5156819;28;20121;-37
2022/01/10 06:22:51;;;;;;;14.00;7.63;;;;;;;;;;5154783;28;20062;-39
2022/01/10 06:25:25;;;;;;;10.70;7.00;;;2.60;99.90;;;;;;5171398;28;20041;-36
2022/01/10 06:27:58;;;;;;;12.23;7.18;;;;;;;;;;5185538;28;20037;-38
2022/01/10 06:30:32;;;;;;;;;;;2.60;99.90;;;;;;5166545;28;20330;-38
2022/01/10 06:33:05;;;;;;;10.55;6.57;;;;;;;;;;5170770;28;20445;-38
2022/01/10 06:35:39;;;;;;;15.27;7.95;;;;;;;;;;5161658;28;20049;-38
2022/01/10 06:38:12;;;;;;;14.00;7.32;;;;;;;;;;5187453;28;20044;-37
2022/01/10 06:40:48;;;;;;;11.35;6.45;;;;;;;;;;5191083;28;20041;-38
2022/01/10 06:43:20;;;;;;;10.47;6.03;;;;;;;;;;5201055;28;20233;-38
2022/01/10 06:45:54;;;;;;;11.32;6.80;;;;;;;;;;5181576;28;20326;-39
2022/01/10 06:48:27;;;;;;;11.98;7.78;;;;;;;;;;5187979;28;20664;-38
2022/01/10 06:51:00;;;;;;;12.82;7.88;;;;;;;;;;5202287;28;20559;-38
2022/01/10 06:53:33;;;;;;;15.55;8.95;;;;;;;;;;5187666;28;20064;-37
2022/01/10 06:56:08;;;;;;;18.10;9.48;;;;;;;;;;5194897;28;20391;-39
2022/01/10 06:58:44;;;;;;;21.95;10.80;;;;;;;;;;5187279;28;20427;-38
2022/01/10 07:01:21;;;;;;;22.00;11.13;;;;;;;;;;5187355;28;20052;-38
2022/01/10 07:03:57;;;;;;;21.08;10.75;;;;;;;;;;5195594;28;21147;-38
2022/01/10 07:06:30;;;;;;;21.95;11.35;;;;;;;;;;5194134;28;20105;-38
2022/01/10 07:09:07;;;;;;;23.83;12.23;;;2.50;99.90;;;;;;5188019;28;20060;-38
2022/01/10 07:11:47;;;;;;;23.95;13.43;;;;;;;;;;5203168;28;20047;-37
2022/01/10 07:14:20;;;;;;;;;;;2.60;99.90;;;;;;5206283;28;20412;-37
2022/01/10 07:16:56;;;;;;;25.63;12.77;;;;;;;;;;5185681;28;19932;-38
2022/01/10 07:19:29;;;;;;;26.27;13.45;;;;;;;;;;5191219;28;20052;-38
2022/01/10 07:22:03;;;;;;;29.23;14.57;;;;;;;;;;5184819;28;20048;-37
2022/01/10 07:24:39;;;;;;;29.05;14.88;;;;;;;;;;5187395;28;20060;-39
2022/01/10 07:27:12;;;;;;;27.75;14.02;;;;;;;;;;5207540;28;20052;-38
2022/01/10 07:29:46;;;;;;;29.73;14.93;;;;;;;;;;5203359;28;20049;-38
2022/01/10 07:32:19;;;;;;;24.45;12.25;;;;;;;;;;5206939;28;20050;-38
2022/01/10 07:34:52;;;;;;;22.20;12.70;;;;;;;;;;5185838;28;20057;-38
2022/01/10 07:37:25;;;;;;;28.58;13.23;;;;;;;;;;5189750;28;20296;-38
2022/01/10 07:39:58;;;;;;;35.03;15.55;;;;;;;;;;5189039;28;20045;-40
2022/01/10 07:42:31;;;;;;;23.75;13.30;;;;;;;;;;5188773;28;20493;-38
2022/01/10 07:45:13;;;;;;;26.55;13.57;;;;;;;;;;5198056;28;20053;-38
2022/01/10 07:47:46;;;;;;;32.60;15.32;;;;;;;;;;5201331;28;20515;-38
2022/01/10 07:50:19;;;;;;;28.45;14.00;;;;;;;;;;5204889;28;20041;-38
2022/01/10 07:52:51;;;;;;;33.35;14.85;;;;;;;;;;5178643;28;20049;-38
2022/01/10 07:55:24;;;;;;;31.85;15.82;;;;;;;;;;5201524;28;20456;-38
2022/01/10 07:57:57;;;;;;;38.03;15.73;;;;;;;;;;5192337;28;20037;-38
2022/01/10 08:00:30;;;;;;;39.63;16.67;;;;;;;;;;5202145;28;20063;-38
2022/01/10 08:03:03;;;;;;;39.20;18.33;;;;;;;;;;5202289;28;20416;-38
2022/01/10 08:05:36;;;;;;;40.33;16.98;;;;;;;;;;5203272;28;20292;-38
2022/01/10 08:08:09;;;;;;;41.10;17.25;;;;;;;;;;5208755;28;20052;-38
2022/01/10 08:10:42;;;;;;;45.15;20.20;;;;;;;;;;5207668;28;20064;-39
2022/01/10 08:13:14;;;;;;;45.63;19.13;;;;;;;;;;5203450;28;20045;-39
2022/01/10 08:15:47;;;;;;;39.00;16.60;;;;;;;;;;5202211;28;20595;-39
2022/01/10 08:18:20;;;;;;;42.63;19.20;;;;;;;;;;5186363;28;20315;-38
2022/01/10 08:20:53;;;;;;;40.13;17.15;;;;;;;;;;5189467;28;20036;-38
2022/01/10 08:23:26;;;;;;;40.50;18.30;;;;;;;;;;5180239;28;20409;-38
2022/01/10 08:25:58;;;;;;;44.33;20.17;;;;;;;;;;5205201;28;20303;-39
2022/01/10 08:28:31;;;;;;;42.83;19.55;;;;;;;;;;5203346;28;20049;-38
2022/01/10 08:31:04;;;;;;;46.20;19.20;;;;;;;;;;5183992;28;20084;-39
2022/01/10 08:33:37;;;;;;;41.73;18.70;;;;;;;;;;5202727;28;20056;-38
2022/01/10 08:36:10;;;;;;;36.17;18.35;;;;;;;;;;5202064;28;20053;-39
2022/01/10 08:38:43;;;;;;;38.83;18.45;;;;;;;;;;5182307;28;20616;-38
2022/01/10 08:41:15;;;;;;;36.55;17.55;;;;;;;;;;5203698;28;20044;-39
2022/01/10 08:43:48;;;;;;;36.53;18.00;;;;;;;;;;5169474;28;20049;-38
2022/01/10 08:46:22;;;;;;;34.78;17.50;;;;;;;;;;5206501;28;20052;-38
2022/01/10 08:48:54;;;;;;;32.70;18.67;;;;;;;;;;5187420;28;20053;-39
2022/01/10 08:51:29;;;;;;;43.17;19.13;;;;;;;;;;5206685;28;20045;-39
2022/01/10 08:54:03;;;;;;;42.75;18.63;;;2.80;99.90;;;;;;5201059;28;20053;-37
2022/01/10 08:56:35;;;;;;;40.80;17.20;;;;;;;;;;5173101;28;20513;-39
2022/01/10 08:59:08;;;;;;;31.13;16.43;;;;;;;;;;5204148;28;20025;-38
2022/01/10 09:01:42;;;;;;;37.85;17.95;;;;;;;;;;5182822;28;20463;-40
2022/01/10 09:04:16;;;;;;;30.42;15.50;;;2.90;99.90;;;;;;5205676;28;20045;-38
2022/01/10 09:06:52;;;;;;;36.05;16.60;;;2.80;99.90;;;;;;5204118;28;20049;-38
2022/01/10 09:09:25;;;;;;;30.90;16.05;;;2.80;99.90;;;;;;5188998;28;20108;-38
2022/01/10 09:11:58;;;;;;;35.97;17.67;;;;;;;;;;5205060;28;20037;-38
2022/01/10 09:14:30;;;;;;;33.60;17.42;;;;;;;;;;5200477;28;20041;-38
2022/01/10 09:17:03;;;;;;;33.58;17.65;;;;;;;;;;5203430;28;20057;-38
2022/01/10 09:19:36;;;;;;;33.17;16.13;;;;;;;;;;5200690;28;20049;-38
2022/01/10 09:22:09;;;;;;;33.80;16.25;;;;;;;;;;5203716;28;20041;-38
2022/01/10 09:24:46;;;;;;;38.15;16.80;;;;;;;;;;5203366;28;20046;-38
2022/01/10 09:27:19;;;;;;;32.42;17.23;;;;;;;;;;5200814;28;20036;-38
2022/01/10 09:29:52;;;;;;;37.80;16.73;;;;;;;;;;5197752;28;20041;-37
2022/01/10 09:32:24;;;;;;;40.87;17.13;;;;;;;;;;5204028;28;20945;-39
2022/01/10 09:34:57;;;;;;;35.75;17.70;;;;;;;;;;5202790;28;20037;-38
2022/01/10 09:37:30;;;;;;;40.33;17.73;;;;;;;;;;5202722;28;20044;-38
2022/01/10 09:40:07;;;;;;;38.63;17.48;;;2.90;99.90;;;;;;5202874;28;20722;-40
2022/01/10 09:42:41;;;;;;;44.80;21.45;;;2.90;99.90;;;;;;5199270;28;20053;-37
2022/01/10 09:45:13;;;;;;;;;;;2.90;99.90;;;;;;5199965;28;20049;-38
2022/01/10 09:47:46;;;;;;;45.13;18.88;;;;;;;;;;5184968;28;20108;-38
2022/01/10 09:50:18;;;;;;;42.20;22.00;;;;;;;;;;5199759;28;20050;-38
2022/01/10 09:52:52;;;;;;;46.50;21.15;;;;;;;;;;5183383;28;21144;-40
2022/01/10 09:55:25;;;;;;;52.35;23.00;;;;;;;;;;5199858;28;20508;-38
2022/01/10 09:57:58;;;;;;;56.90;22.98;;;;;;;;;;5204750;28;20041;-38
2022/01/10 10:00:31;;;;;;;61.25;24.90;;;;;;;;;;5203921;28;20504;-38
2022/01/10 10:03:05;;;;;;;59.80;26.55;;;3.00;99.90;;;;;;5201512;28;20633;-38
2022/01/10 10:05:38;;;;;;;51.88;22.52;;;;;;;;;;5202828;28;20060;-39
2022/01/10 10:08:11;;;;;;;49.38;23.85;;;;;;;;;;5204670;28;20416;-38
2022/01/10 10:10:44;;;;;;;51.08;21.25;;;;;;;;;;5183726;28;20057;-38
2022/01/10 10:13:18;;;;;;;42.92;21.25;;;3.00;99.90;;;;;;5204858;28;20060;-38
2022/01/10 10:15:51;;;;;;;42.58;19.65;;;;;;;;;;5198634;28;20114;-38
2022/01/10 10:18:24;;;;;;;47.43;22.03;;;;;;;;;;5202826;28;20382;-37
2022/01/10 10:20:56;;;;;;;53.22;22.38;;;;;;;;;;5199404;28;20052;-38
2022/01/10 10:23:31;;;;;;;46.93;20.53;;;3.10;99.90;;;;;;5201006;28;20046;-38
2022/01/10 10:26:04;;;;;;;43.78;19.20;;;3.10;99.90;;;;;;5201783;28;20033;-38
2022/01/10 10:28:37;;;;;;;42.30;20.33;;;;;;;;;;5200243;28;20041;-37
2022/01/10 10:31:10;;;;;;;44.40;19.13;;;;;;;;;;5198221;28;20508;-37
2022/01/10 10:33:48;;;;;;;47.92;20.92;;;3.30;99.90;;;;;;5202749;28;20174;-39
2022/01/10 10:36:21;;;;;;;49.40;20.63;;;;;;;;;;5198562;28;20053;-37
2022/01/10 10:38:55;;;;;;;40.37;18.37;;;3.20;99.90;;;;;;5202158;28;20052;-37
2022/01/10 10:41:28;;;;;;;43.97;18.88;;;;;;;;;;5199410;28;20042;-38
2022/01/10 10:44:01;;;;;;;36.95;17.23;;;;;;;;;;5202106;28;20079;-40
2022/01/10 10:46:36;;;;;;;38.13;18.23;;;;;;;;;;5204328;28;20045;-38
2022/01/10 10:49:10;;;;;;;46.20;18.88;;;;;;;;;;5200613;28;20041;-38
2022/01/10 10:51:45;;;;;;;47.85;20.50;;;;;;;;;;5195310;28;20068;-39
2022/01/10 10:54:18;;;;;;;41.03;20.23;;;3.30;99.90;;;;;;5201322;28;20052;-39
2022/01/10 10:56:52;;;;;;;37.20;17.80;;;;;;;;;;5201767;28;20041;-41
2022/01/10 10:59:29;;;;;;;34.85;16.65;;;3.30;99.90;;;;;;5203390;28;20041;-39
2022/01/10 11:02:03;;;;;;;36.42;17.95;;;3.20;99.90;;;;;;5207170;28;20049;-40
2022/01/10 11:04:41;;;;;;;39.65;18.80;;;3.30;99.90;;;;;;5198172;28;20045;-39
2022/01/10 11:07:16;;;;;;;37.20;18.13;;;;;;;;;;5201823;28;20041;-39
2022/01/10 11:10:10;;;;;;;37.65;17.67;;;;;;;;;;5204197;28;20053;-39
2022/01/10 11:12:49;;;;;;;36.55;17.67;;;3.20;99.90;;;;;;5201201;28;20049;-39
2022/01/10 11:15:23;;;;;;;39.95;18.08;;;3.30;99.90;;;;;;5172468;28;20522;-40
2022/01/10 11:18:00;;;;;;;40.42;17.52;;;3.30;99.90;;;;;;5186674;28;20053;-40
2022/01/10 11:20:45;;;;;;;31.45;14.93;;;3.30;99.90;;;;;;5201299;28;20488;-39
2022/01/10 11:23:41;;;;;;;45.92;16.15;;;3.20;99.90;;;;;;5206160;28;20052;-40
2022/01/10 11:26:14;;;;;;;35.35;15.57;;;;;;;;;;5203975;28;20060;-39
2022/01/10 11:28:55;;;;;;;31.80;15.70;;;3.20;99.90;;;;;;5201400;28;20048;-39
2022/01/10 11:31:29;;;;;;;40.45;15.50;;;;;;;;;;5202879;28;20052;-39
2022/01/10 11:34:01;;;;;;;36.15;15.38;;;;;;;;;;5203741;28;20041;-40
2022/01/10 11:36:34;;;;;;;30.05;14.98;;;;;;;;;;5203246;28;20397;-39
2022/01/10 11:39:10;;;;;;;31.60;15.83;;;3.40;99.90;;;;;;5193068;28;20411;-40
2022/01/10 11:41:43;;;;;;;32.55;15.55;;;;;;;;;;5204287;28;20588;-38
2022/01/10 11:44:18;;;;;;;35.72;17.05;;;3.30;99.90;;;;;;5207054;28;20045;-40
2022/01/10 11:46:51;;;;;;;43.25;20.90;;;3.30;99.90;;;;;;5207565;28;20053;-39
2022/01/10 11:49:25;;;;;;;43.28;20.48;;;;;;;;;;5189801;28;20049;-40
2022/01/10 11:51:59;;;;;;;;;;;3.30;99.90;;;;;;5203682;28;20049;-40
2022/01/10 11:54:36;;;;;;;36.10;15.98;;;3.30;99.90;;;;;;5203637;28;19920;-39
2022/01/10 11:57:11;;;;;;;36.53;16.02;;;3.50;99.90;;;;;;5206151;28;20045;-40
2022/01/10 11:59:56;;;;;;;39.55;16.85;;;3.40;99.90;;;;;;5208132;28;20076;-39
2022/01/10 12:02:30;;;;;;;30.98;16.38;;;;;;;;;;5208186;28;20130;-38
2022/01/10 12:05:03;;;;;;;32.00;16.13;;;;;;;;;;5204027;28;20200;-39
2022/01/10 12:07:36;;;;;;;35.83;15.55;;;;;;;;;;5192587;28;20311;-40
2022/01/10 12:10:29;;;;;;;37.45;16.40;;;;;;;;;;5202914;28;20588;-39
2022/01/10 12:13:10;;;;;;;37.70;17.43;;;3.40;99.90;;;;;;5202403;28;20642;-39
2022/01/10 12:15:43;;;;;;;40.20;17.48;;;;;;;;;;5204291;28;20067;-39
2022/01/10 12:18:16;;;;;;;36.00;17.35;;;;;;;;;;5182193;28;20635;-39
2022/01/10 12:20:53;;;;;;;40.80;17.75;;;3.30;99.90;;;;;;5188744;28;20489;-39
2022/01/10 12:23:25;;;;;;;33.05;17.13;;;;;;;;;;5196125;28;20045;-39
2022/01/10 12:25:59;;;;;;;38.35;16.48;;;3.40;99.90;;;;;;5194550;28;20045;-39
2022/01/10 12:28:32;;;;;;;37.57;18.67;;;;;;;;;;5187706;28;20037;-39
2022/01/10 12:31:05;;;;;;;42.03;19.27;;;;;;;;;;5176152;28;20667;-40
2022/01/10 12:33:38;;;;;;;37.88;18.75;;;;;;;;;;5199123;28;20041;-39
2022/01/10 12:36:11;;;;;;;40.75;21.17;;;;;;;;;;5174916;28;20053;-39
2022/01/10 12:38:44;;;;;;;39.13;17.58;;;;;;;;;;5158488;28;20052;-39
2022/01/10 12:41:19;;;;;;;37.65;17.73;;;;;;;;;;5184159;28;20535;-39
2022/01/10 12:43:53;;;;;;;47.53;19.25;;;;;;;;;;5178183;28;20512;-39
2022/01/10 12:46:30;;;;;;;39.17;17.92;;;;;;;;;;5182691;28;20065;-38
2022/01/10 12:49:07;;;;;;;44.47;17.35;;;3.30;99.90;;;;;;5162346;28;20068;-38
2022/01/10 12:51:43;;;;;;;31.52;15.23;;;3.30;99.90;;;;;;5192197;28;20064;-38
2022/01/10 12:54:18;;;;;;;34.58;16.02;;;3.10;99.90;;;;;;5179188;28;20056;-38
2022/01/10 12:56:51;;;;;;;35.55;16.10;;;;;;;;;;5189056;28;20041;-37
2022/01/10 12:59:26;;;;;;;34.17;16.45;;;3.20;99.90;;;;;;5164134;28;20041;-38
2022/01/10 13:02:00;;;;;;;38.75;16.88;;;;;;;;;;5173345;28;20053;-38
2022/01/10 13:04:37;;;;;;;33.55;16.90;;;3.30;99.90;;;;;;5148745;28;20420;-39
2022/01/10 13:07:15;;;;;;;38.80;16.75;;;3.30;99.90;;;;;;5176368;28;20080;-38
2022/01/10 13:10:07;;;;;;;38.78;16.38;;;3.40;99.90;;;;;;5177691;28;20448;-38
2022/01/10 13:12:40;;;;;;;36.10;16.88;;;;;;;;;;5172208;28;20417;-38
2022/01/10 13:15:14;;;;;;;33.03;15.45;;;;;;;;;;5154817;28;22839;-36
2022/01/10 13:17:59;;;;;;;37.05;18.35;;;3.40;99.90;;;;;;5169035;28;20053;-37
2022/01/10 13:20:35;;;;;;;32.58;15.27;;;3.40;99.90;;;;;;5165881;28;20041;-36
2022/01/10 13:23:10;;;;;;;36.05;17.17;;;3.40;99.90;;;;;;5151118;28;20049;-37
2022/01/10 13:25:49;;;;;;;38.55;17.63;;;3.30;99.90;;;;;;5169826;28;20053;-37
2022/01/10 13:28:22;;;;;;;34.05;16.30;;;;;;;;;;5189091;28;20036;-36
2022/01/10 13:30:56;;;;;;;33.60;15.70;;;3.30;99.90;;;;;;5181702;28;20060;-38
2022/01/10 13:33:37;;;;;;;;;;;3.20;99.90;;;;;;5179282;28;20527;-37
2022/01/10 13:36:10;;;;;;;30.15;14.95;;;;;;;;;;5171651;28;20080;-37
2022/01/10 13:38:43;;;;;;;31.38;15.25;;;;;;;;;;5169145;28;20048;-37
2022/01/10 13:41:16;;;;;;;33.88;13.88;;;;;;;;;;5161726;28;20689;-37
2022/01/10 13:43:49;;;;;;;27.83;14.03;;;3.30;99.90;;;;;;5182143;28;20045;-37
2022/01/10 13:46:22;;;;;;;29.30;14.30;;;;;;;;;;5144816;28;20314;-36
2022/01/10 13:48:57;;;;;;;31.35;14.35;;;;;;;;;;5182665;28;20053;-38
2022/01/10 13:51:30;;;;;;;26.83;13.93;;;;;;;;;;5162461;28;20087;-36
2022/01/10 13:54:04;;;;;;;27.75;15.35;;;;;;;;;;5175348;28;20527;-37
2022/01/10 13:56:44;;;;;;;30.50;15.32;;;;;;;;;;5156822;28;20037;-37
2022/01/10 13:59:18;;;;;;;34.22;15.32;;;;;;;;;;5165371;28;20056;-38
2022/01/10 14:01:54;;;;;;;28.05;14.82;;;3.40;99.90;;;;;;5170167;28;20049;-37
2022/01/10 14:04:32;;;;;;;33.60;14.63;;;3.40;99.90;;;;;;5179388;28;20052;-38
2022/01/10 14:07:11;;;;;;;35.22;16.33;;;3.40;99.90;;;;;;5162403;28;20116;-37
2022/01/10 14:09:44;;;;;;;33.00;14.98;;;3.40;99.90;;;;;;5170216;28;20428;-38
2022/01/10 14:12:17;;;;;;;30.15;15.88;;;;;;;;;;5158673;28;20211;-39
2022/01/10 14:14:54;;;;;;;30.07;15.03;;;3.40;99.90;;;;;;5179466;28;20048;-37
2022/01/10 14:17:27;;;;;;;31.42;15.07;;;;;;;;;;5144715;28;20345;-37
2022/01/10 14:20:00;;;;;;;30.65;14.98;;;;;;;;;;5161848;28;20155;-36
2022/01/10 14:22:33;;;;;;;28.73;13.53;;;;;;;;;;5176772;28;20055;-37
2022/01/10 14:25:06;;;;;;;30.88;16.35;;;;;;;;;;5183895;28;20304;-38
2022/01/10 14:27:39;;;;;;;;;;;3.50;99.90;;;;;;5192866;28;20408;-39
2022/01/10 14:30:13;;;;;;;33.70;15.75;;;3.50;99.90;;;;;;5162538;28;19932;-38
2022/01/10 14:32:48;;;;;;;28.25;14.63;;;;;;;;;;5174937;28;20519;-37
2022/01/10 14:35:20;;;;;;;29.05;15.77;;;;;;;;;;5180392;28;20064;-37
2022/01/10 14:37:54;;;;;;;33.25;17.88;;;;;;;;;;5168347;28;20057;-38
2022/01/10 14:40:26;;;;;;;31.63;15.90;;;;;;;;;;5176444;28;20045;-37
2022/01/10 14:43:01;;;;;;;32.30;16.63;;;;;;;;;;5181522;28;20441;-37
2022/01/10 14:45:33;;;;;;;30.20;14.07;;;;;;;;;;5153525;28;20080;-40
2022/01/10 14:48:07;;;;;;;36.87;18.00;;;3.50;99.90;;;;;;5180259;28;20056;-40
2022/01/10 14:50:40;;;;;;;42.03;19.73;;;3.50;99.90;;;;;;5181767;28;20041;-38
2022/01/10 14:53:13;;;;;;;30.95;16.42;;;;;;;;;;5178895;28;20576;-37
2022/01/10 14:55:48;;;;;;;48.60;20.55;;;;;;;;;;5167747;28;20064;-38